Ellen Mcallister — WDG3673 — position and weather

sailwx.info

Track history (hours):
 
Tides and Currents Weather Stations Pressure Air Temp Water Temp Dewpoint Dewpoint Depression Visibility Wind Speed Wind Dir Waves Ship Positions

Ellen Mcallister

Owner: McAllister Towing & Transportation Inc., Staten Island, NY. More information available from US FCC via Universal Licensing System and Coast Guard Vessel Documentation Center.

Last reported at 2016-Feb-07 22:25 UTC. Time now 2016-Feb-08 02:03 UTC.
Position N 40°40' W 074°04'.

Length 35 m.

Type: Tug. MMSI: 366836590.

Date/timePositionNaut miles runAvg speedWind from/ knotsBaromVisibWave heightAir tempDewpointWater temp
2016-Feb-07 22:25N 40°40' W 074°04'  
2016-Feb-05 15:28N 40°38' W 074°04'2 2.2
2016-Feb-05 14:33N 40°40' W 074°04'1 0.2
2016-Feb-05 10:32N 40°40' W 074°03'0 0.1
2016-Feb-05 07:33N 40°40' W 074°04'2 0.1
2016-Feb-04 15:29N 40°38' W 074°04'0 0.0
2016-Feb-04 14:33N 40°38' W 074°04'1 0.2
2016-Feb-04 09:33N 40°39' W 074°04'0 0.1
2016-Feb-04 06:21N 40°39' W 074°03'3 4.2
2016-Feb-04 05:33N 40°41' W 074°00'4 1.7
2016-Feb-04 03:21N 40°40' W 074°05'0 0.0
2016-Feb-04 00:25N 40°40' W 074°05'0 0.1
2016-Feb-03 23:30N 40°40' W 074°05'1 0.0
2016-Feb-03 05:20N 40°40' W 074°04'0 0.1
2016-Feb-03 04:29N 40°40' W 074°04'0 0.0
2016-Feb-01 20:29N 40°40' W 074°04'0 0.0
2016-Feb-01 19:30N 40°40' W 074°04'0 0.0
2016-Feb-01 18:33N 40°40' W 074°04'0 0.0
2016-Feb-01 17:29N 40°40' W 074°04'0 0.0
2016-Feb-01 16:27N 40°40' W 074°04'0 0.0
2016-Feb-01 15:24N 40°40' W 074°04'0 0.0
2016-Feb-01 14:33N 40°40' W 074°04'  
2016-Jan-29 15:24N 40°38' W 074°03'0 0.2
2016-Jan-29 14:33N 40°38' W 074°03'0 0.0
2016-Jan-29 13:24N 40°38' W 074°03'3 0.6
2016-Jan-29 09:25N 40°40' W 074°05'0 0.0
2016-Jan-29 08:25N 40°40' W 074°05'2 2.6
2016-Jan-29 07:33N 40°39' W 074°03'0 0.2
2016-Jan-29 06:24N 40°38' W 074°03'0 0.0
2016-Jan-29 05:33N 40°38' W 074°03'0 0.0
2016-Jan-29 04:33N 40°38' W 074°03'0 0.0
2016-Jan-29 03:33N 40°38' W 074°03'0 0.0
2016-Jan-29 02:33N 40°38' W 074°03'0 0.0
2016-Jan-29 01:28N 40°38' W 074°03'0 0.1
2016-Jan-28 23:16N 40°38' W 074°03'  
Track history (hours):
 
Tides and Currents Weather Stations Pressure Air Temp Water Temp Dewpoint Dewpoint Depression Visibility Wind Speed Wind Dir Waves Ship Positions

Ellen Mcallister

Owner: McAllister Towing & Transportation Inc., Staten Island, NY. More information available from US FCC via Universal Licensing System and Coast Guard Vessel Documentation Center.

Last reported at 2016-Feb-07 22:25 UTC. Time now 2016-Feb-08 02:03 UTC.
Position N 40°40' W 074°04'.

Length 35 m.

Type: Tug. MMSI: 366836590.

Date/timePositionNaut miles runAvg speedWind from/ knotsBaromVisibWave heightAir tempDewpointWater temp
2016-Feb-07 22:25N 40°40' W 074°04'  
2016-Feb-05 15:28N 40°38' W 074°04'2 2.2
2016-Feb-05 14:33N 40°40' W 074°04'1 0.2
2016-Feb-05 10:32N 40°40' W 074°03'0 0.1
2016-Feb-05 07:33N 40°40' W 074°04'2 0.1
2016-Feb-04 15:29N 40°38' W 074°04'0 0.0
2016-Feb-04 14:33N 40°38' W 074°04'1 0.2
2016-Feb-04 09:33N 40°39' W 074°04'0 0.1
2016-Feb-04 06:21N 40°39' W 074°03'3 4.2
2016-Feb-04 05:33N 40°41' W 074°00'4 1.7
2016-Feb-04 03:21N 40°40' W 074°05'0 0.0
2016-Feb-04 00:25N 40°40' W 074°05'0 0.1
2016-Feb-03 23:30N 40°40' W 074°05'1 0.0
2016-Feb-03 05:20N 40°40' W 074°04'0 0.1
2016-Feb-03 04:29N 40°40' W 074°04'0 0.0
2016-Feb-01 20:29N 40°40' W 074°04'0 0.0
2016-Feb-01 19:30N 40°40' W 074°04'0 0.0
2016-Feb-01 18:33N 40°40' W 074°04'0 0.0
2016-Feb-01 17:29N 40°40' W 074°04'0 0.0
2016-Feb-01 16:27N 40°40' W 074°04'0 0.0
2016-Feb-01 15:24N 40°40' W 074°04'0 0.0
2016-Feb-01 14:33N 40°40' W 074°04'  
2016-Jan-29 15:24N 40°38' W 074°03'0 0.2
2016-Jan-29 14:33N 40°38' W 074°03'0 0.0
2016-Jan-29 13:24N 40°38' W 074°03'3 0.6
2016-Jan-29 09:25N 40°40' W 074°05'0 0.0
2016-Jan-29 08:25N 40°40' W 074°05'2 2.6
2016-Jan-29 07:33N 40°39' W 074°03'0 0.2
2016-Jan-29 06:24N 40°38' W 074°03'0 0.0
2016-Jan-29 05:33N 40°38' W 074°03'0 0.0
2016-Jan-29 04:33N 40°38' W 074°03'0 0.0
2016-Jan-29 03:33N 40°38' W 074°03'0 0.0
2016-Jan-29 02:33N 40°38' W 074°03'0 0.0
2016-Jan-29 01:28N 40°38' W 074°03'0 0.1
2016-Jan-28 23:16N 40°38' W 074°03'  

Dump ship's entire track history